createdAt,value
2023-01-30T00:02:27.566Z,75.20
2023-01-30T00:07:31.678Z,75.13
2023-01-30T00:12:34.515Z,74.97
2023-01-30T00:17:37.236Z,74.75
2023-01-30T00:22:49.326Z,75.28
2023-01-30T00:28:01.201Z,75.16
2023-01-30T00:33:05.454Z,75.25
2023-01-30T00:38:10.261Z,75.02
2023-01-30T00:43:36.486Z,75.52
2023-01-30T00:48:39.368Z,75.00
2023-01-30T00:53:43.646Z,74.90
2023-01-30T00:58:46.378Z,74.35
2023-01-30T01:03:49.101Z,74.59
2023-01-30T01:08:53.210Z,74.87
2023-01-30T01:13:57.315Z,74.58
2023-01-30T01:19:00.300Z,74.99
2023-01-30T01:24:04.831Z,74.79
2023-01-30T01:29:12.783Z,74.35
2023-01-30T01:34:15.685Z,74.80
2023-01-30T01:39:21.493Z,74.82
2023-01-30T01:44:26.014Z,74.20
2023-01-30T01:49:30.388Z,74.54
2023-01-30T01:54:38.629Z,74.03
2023-01-30T01:59:45.250Z,74.53
2023-01-30T02:05:02.917Z,74.50
2023-01-30T02:10:10.306Z,73.99
2023-01-30T02:15:13.344Z,74.02
2023-01-30T02:20:24.322Z,74.19
2023-01-30T02:26:09.280Z,74.20
2023-01-30T02:31:25.423Z,74.60
2023-01-30T02:36:30.755Z,74.03
2023-01-30T02:41:38.465Z,74.38
2023-01-30T02:46:49.055Z,74.46
2023-01-30T02:51:51.973Z,74.54
2023-01-30T02:56:58.782Z,74.28
2023-01-30T03:02:33.132Z,74.31
2023-01-30T03:07:42.187Z,74.78
2023-01-30T03:12:50.602Z,74.36
2023-01-30T03:17:55.829Z,74.86
2023-01-30T03:22:59.409Z,75.18
2023-01-30T03:28:03.505Z,74.62
2023-01-30T03:33:07.639Z,74.61
2023-01-30T03:38:13.358Z,74.63
2023-01-30T03:43:16.054Z,74.74
2023-01-30T03:48:20.453Z,75.15
2023-01-30T03:53:23.551Z,75.61
2023-01-30T03:58:26.561Z,75.14
2023-01-30T04:03:32.078Z,74.98
2023-01-30T04:08:35.663Z,75.03
2023-01-30T04:13:39.357Z,75.29
2023-01-30T04:18:43.549Z,75.11
2023-01-30T04:23:53.135Z,75.13
2023-01-30T04:28:56.011Z,75.53
2023-01-30T04:34:00.447Z,74.96
2023-01-30T04:39:03.271Z,75.38
2023-01-30T04:44:07.896Z,75.88
2023-01-30T04:49:35.198Z,75.51
2023-01-30T04:54:39.161Z,75.28
2023-01-30T04:59:42.302Z,76.07
2023-01-30T05:04:51.396Z,75.98
2023-01-30T05:09:54.104Z,76.73
2023-01-30T05:14:56.943Z,76.77
2023-01-30T05:20:01.023Z,76.36
2023-01-30T05:25:03.906Z,76.19
2023-01-30T05:30:07.845Z,76.97
2023-01-30T05:35:12.018Z,76.65
2023-01-30T05:40:15.162Z,76.37
2023-01-30T05:45:18.336Z,76.82
2023-01-30T05:50:22.529Z,77.00
2023-01-30T05:55:25.488Z,76.42
2023-01-30T06:00:28.270Z,76.95
2023-01-30T06:05:32.613Z,76.39
2023-01-30T06:10:35.611Z,77.44
2023-01-30T06:15:39.127Z,76.80
2023-01-30T06:20:48.371Z,77.19
2023-01-30T06:25:51.744Z,77.70
2023-01-30T06:30:54.997Z,77.03
2023-01-30T06:35:59.127Z,77.49
2023-01-30T06:41:01.906Z,77.60
2023-01-30T06:46:04.893Z,78.10
2023-01-30T06:51:09.046Z,77.75
2023-01-30T06:56:11.977Z,78.27
2023-01-30T07:01:14.824Z,78.92
2023-01-30T07:06:18.932Z,79.03
2023-01-30T07:11:21.624Z,79.59
2023-01-30T07:16:29.052Z,79.68
2023-01-30T07:21:33.186Z,80.46
2023-01-30T07:26:36.384Z,80.41
2023-01-30T07:31:39.181Z,80.85
2023-01-30T07:36:43.309Z,81.57
2023-01-30T07:41:46.016Z,81.59
2023-01-30T07:46:48.847Z,82.35
2023-01-30T07:51:53.160Z,82.62
2023-01-30T07:56:55.834Z,83.31
2023-01-30T08:01:58.684Z,83.89
2023-01-30T08:07:02.802Z,83.85
2023-01-30T08:12:06.088Z,84.05
2023-01-30T08:17:08.907Z,83.99
2023-01-30T08:22:13.212Z,84.07
2023-01-30T08:27:16.104Z,84.87
2023-01-30T08:32:18.831Z,84.44
2023-01-30T08:37:23.039Z,84.59
2023-01-30T08:42:25.918Z,84.56
2023-01-30T08:47:28.635Z,83.91
2023-01-30T08:52:33.239Z,84.45
2023-01-30T08:57:36.244Z,84.50
2023-01-30T09:02:39.004Z,84.06
2023-01-30T09:07:43.075Z,83.85
2023-01-30T09:12:46.568Z,84.22
2023-01-30T09:17:49.340Z,83.62
2023-01-30T09:22:53.438Z,83.58
2023-01-30T09:27:56.577Z,83.87
2023-01-30T09:32:59.268Z,83.87
2023-01-30T09:38:04.703Z,83.64
2023-01-30T09:43:23.528Z,83.04
2023-01-30T09:48:31.085Z,83.20
2023-01-30T09:53:39.915Z,82.46
2023-01-30T09:58:46.852Z,83.09
2023-01-30T10:03:57.390Z,82.98
2023-01-30T10:09:05.791Z,83.39
2023-01-30T10:14:25.495Z,83.60
2023-01-30T10:19:40.571Z,83.44
2023-01-30T10:24:52.812Z,83.46
2023-01-30T10:29:57.509Z,83.21
2023-01-30T10:35:06.390Z,83.30
2023-01-30T10:40:16.328Z,83.40
2023-01-30T10:45:22.087Z,83.85
2023-01-30T10:50:30.331Z,83.93
2023-01-30T10:55:38.497Z,84.05
2023-01-30T11:00:43.976Z,84.17
2023-01-30T11:05:50.323Z,83.72
2023-01-30T11:10:55.495Z,83.80
2023-01-30T11:16:00.563Z,84.05
2023-01-30T11:21:05.433Z,84.09
2023-01-30T11:26:20.278Z,83.92
2023-01-30T11:31:40.376Z,83.48
2023-01-30T11:36:46.024Z,83.06
2023-01-30T11:41:59.497Z,83.09
2023-01-30T11:47:04.337Z,83.41
2023-01-30T11:52:07.346Z,78.98
2023-01-30T11:57:15.078Z,77.50
2023-01-30T12:02:21.706Z,80.42
2023-01-30T12:07:26.502Z,81.61
2023-01-30T12:12:35.182Z,82.08
2023-01-30T12:17:43.866Z,82.31
2023-01-30T12:22:50.673Z,82.53
2023-01-30T12:28:00.994Z,82.86
2023-01-30T12:33:05.950Z,82.91
2023-01-30T12:38:18.882Z,82.20
2023-01-30T12:43:37.996Z,78.58
2023-01-30T12:49:11.042Z,78.54
2023-01-30T12:54:21.299Z,80.49
2023-01-30T12:59:29.124Z,79.72
2023-01-30T13:04:56.573Z,79.27
2023-01-30T13:10:10.764Z,78.74
2023-01-30T13:15:21.353Z,79.00
2023-01-30T13:20:37.723Z,79.45
2023-01-30T13:25:44.216Z,78.91
2023-01-30T13:30:50.948Z,80.01
2023-01-30T13:35:56.917Z,80.26
2023-01-30T13:41:01.473Z,80.71
2023-01-30T13:46:09.248Z,81.35
2023-01-30T13:51:24.562Z,81.68
2023-01-30T13:56:41.362Z,81.85
2023-01-30T14:02:16.664Z,82.06
2023-01-30T14:07:26.011Z,82.55
2023-01-30T14:12:33.831Z,82.50
2023-01-30T14:17:38.004Z,82.50
2023-01-30T14:22:51.250Z,82.84
2023-01-30T14:27:55.418Z,82.41
2023-01-30T14:33:00.981Z,82.04
2023-01-30T14:38:14.787Z,82.78
2023-01-30T14:43:54.231Z,83.94
2023-01-30T14:49:04.975Z,85.23
2023-01-30T14:54:11.122Z,86.37
2023-01-30T14:59:24.361Z,87.54
2023-01-30T15:04:31.931Z,88.49
2023-01-30T15:09:34.777Z,89.49
2023-01-30T15:14:43.578Z,90.25
2023-01-30T15:20:03.753Z,90.93
2023-01-30T15:25:25.641Z,91.26
2023-01-30T15:30:38.674Z,91.87
2023-01-30T15:35:43.746Z,92.80
2023-01-30T15:40:46.668Z,93.60
2023-01-30T15:46:02.831Z,93.98
2023-01-30T15:51:07.066Z,95.22
2023-01-30T15:56:11.955Z,95.45
2023-01-30T16:01:20.567Z,96.65
2023-01-30T16:06:32.552Z,96.88
2023-01-30T16:11:40.268Z,97.72
2023-01-30T16:16:44.707Z,98.41
2023-01-30T16:21:49.413Z,98.97
2023-01-30T16:26:55.240Z,98.38
2023-01-30T16:31:58.423Z,98.02
2023-01-30T16:37:07.827Z,97.91
2023-01-30T16:42:23.574Z,97.85
2023-01-30T16:47:28.018Z,97.97
2023-01-30T16:52:37.663Z,98.08
2023-01-30T16:57:43.661Z,98.22
2023-01-30T17:02:51.922Z,98.43
2023-01-30T17:07:57.293Z,98.85
2023-01-30T17:13:00.075Z,98.93
2023-01-30T17:18:03.022Z,99.23
2023-01-30T17:23:10.299Z,99.18
2023-01-30T17:28:21.023Z,99.17
2023-01-30T17:33:25.580Z,99.27
2023-01-30T17:38:29.630Z,99.10
2023-01-30T17:43:32.386Z,99.47
2023-01-30T17:48:35.077Z,99.35
2023-01-30T17:53:39.264Z,99.32
2023-01-30T17:58:41.983Z,99.45
2023-01-30T18:03:45.074Z,100.00
2023-01-30T18:08:49.248Z,100.00
2023-01-30T18:13:52.070Z,100.00
2023-01-30T18:18:54.953Z,100.00
2023-01-30T18:23:59.108Z,100.00
2023-01-30T18:29:01.888Z,100.00
2023-01-30T18:34:04.616Z,99.85
2023-01-30T18:39:09.113Z,99.75
2023-01-30T18:44:12.907Z,99.62
2023-01-30T18:49:15.768Z,99.46
2023-01-30T18:54:19.887Z,99.24
2023-01-30T18:59:22.967Z,98.73
2023-01-30T19:04:25.798Z,99.07
2023-01-30T19:09:30.888Z,98.32
2023-01-30T19:14:33.658Z,98.03
2023-01-30T19:19:37.037Z,97.90
2023-01-30T19:24:41.303Z,98.29
2023-01-30T19:29:43.993Z,97.94
2023-01-30T19:34:46.834Z,97.66
2023-01-30T19:39:51.295Z,97.19
2023-01-30T19:44:54.081Z,97.01
2023-01-30T19:49:56.810Z,96.71
2023-01-30T19:55:00.950Z,96.29
2023-01-30T20:00:04.817Z,95.79
2023-01-30T20:05:09.021Z,95.32
2023-01-30T20:10:13.408Z,94.95
2023-01-30T20:15:16.330Z,94.57
2023-01-30T20:20:19.321Z,94.24
2023-01-30T20:25:24.220Z,93.92
2023-01-30T20:30:26.993Z,94.12
2023-01-30T20:35:29.689Z,94.05
2023-01-30T20:40:33.742Z,94.37
2023-01-30T20:45:36.602Z,94.31
2023-01-30T20:50:39.576Z,94.41
2023-01-30T20:55:43.907Z,94.23
2023-01-30T21:00:46.635Z,94.05
2023-01-30T21:05:57.695Z,94.10
2023-01-30T21:11:10.718Z,94.15
2023-01-30T21:16:15.995Z,93.72
2023-01-30T21:21:20.351Z,93.78
2023-01-30T21:26:26.619Z,93.67
2023-01-30T21:31:30.890Z,92.79
2023-01-30T21:36:33.807Z,92.32
2023-01-30T21:41:57.547Z,91.77
2023-01-30T21:47:00.921Z,91.28
2023-01-30T21:52:03.673Z,90.90
2023-01-30T21:57:07.818Z,90.61
2023-01-30T22:02:10.584Z,90.30
2023-01-30T22:07:13.456Z,90.07
2023-01-30T22:12:17.748Z,90.10
2023-01-30T22:17:20.536Z,89.72
2023-01-30T22:22:25.131Z,89.66
2023-01-30T22:27:29.179Z,89.58
2023-01-30T22:32:32.034Z,89.56
2023-01-30T22:37:35.193Z,89.54
2023-01-30T22:42:39.462Z,89.39
2023-01-30T22:47:42.168Z,89.30
2023-01-30T22:52:44.905Z,89.32
2023-01-30T22:57:49.045Z,89.47
2023-01-30T23:02:51.751Z,89.30
2023-01-30T23:07:54.426Z,89.22
2023-01-30T23:13:07.312Z,89.09
2023-01-30T23:18:28.106Z,89.34
2023-01-30T23:23:31.029Z,89.22
2023-01-30T23:28:35.915Z,89.28
2023-01-30T23:33:38.907Z,89.63
2023-01-30T23:38:42.197Z,89.78
2023-01-30T23:43:47.036Z,90.05
2023-01-30T23:48:51.698Z,91.15
2023-01-30T23:53:55.225Z,91.38
2023-01-30T23:58:59.735Z,91.24
